KMGM/MGM METAR and TAF weather

Enter ICAO airport designator
Station Type Date Time Source
KMGM METAR 2020/06/06 13:53 UTC NOAA

KMGM 061353Z 05003KT 10SM CLR 26/22 A3001 RMK AO2 SLP161 T02610222


Station Type Date Time Source
KMGM Decoded METAR 2020/06/06 13:53 UTC NOAA

MONTGOMERY DANNELLY FIELD, AL, United States (KMGM) 32-18N 86-24W 63M
Jun 06, 2020 - 09:53 AM EDT / 2020.06.06 1353 UTC
Wind: from the NE (050 degrees) at 3 MPH (3 KT):0
Visibility: 10 mile(s):0
Sky conditions: clear
Temperature: 79.0 F (26.1 C)
Dew Point: 72.0 F (22.2 C)
Relative Humidity: 79%
Pressure (altimeter): 30.01 in. Hg (1016 hPa)
ob: KMGM 061353Z 05003KT 10SM CLR 26/22 A3001 RMK AO2 SLP161 T02610222
cycle: 14

Station Type Date Time Source
KMGM TAF 2020/06/06 12:39 UTC NOAA

TAF KMGM 061136Z 0612/0712 00000KT P6SM BKN070
TEMPO 0612/0614 BKN015
FM061500 12006KT P6SM OVC080
FM061800 09009KT P6SM VCTS BKN070CB PROB30 0621/0701 4SM TSRA OVC025CB
FM070200 13007KT P6SM OVC090
FM070500 10005KT P6SM OVC070

Example: see airport list